sensor_id;sensor_type;location;lat;lon;timestamp;P1;durP1;ratioP1;P2;durP2;ratioP2
49842;SDS011;55559;48.898;9.184;2024-01-11T00:00:20;84.25;;;37.25;;
49842;SDS011;55559;48.898;9.184;2024-01-11T00:02:47;80.97;;;37.03;;
49842;SDS011;55559;48.898;9.184;2024-01-11T00:05:14;85.45;;;38.30;;
49842;SDS011;55559;48.898;9.184;2024-01-11T00:07:42;87.72;;;40.88;;
49842;SDS011;55559;48.898;9.184;2024-01-11T00:10:10;81.40;;;37.40;;
49842;SDS011;55559;48.898;9.184;2024-01-11T00:12:37;76.18;;;37.70;;
49842;SDS011;55559;48.898;9.184;2024-01-11T00:15:04;85.20;;;41.55;;
49842;SDS011;55559;48.898;9.184;2024-01-11T00:17:31;87.18;;;39.45;;
49842;SDS011;55559;48.898;9.184;2024-01-11T00:19:59;86.85;;;38.05;;
49842;SDS011;55559;48.898;9.184;2024-01-11T00:22:26;82.60;;;40.33;;
49842;SDS011;55559;48.898;9.184;2024-01-11T00:24:54;89.13;;;40.47;;
49842;SDS011;55559;48.898;9.184;2024-01-11T00:27:21;83.57;;;38.53;;
49842;SDS011;55559;48.898;9.184;2024-01-11T00:29:49;87.90;;;40.22;;
49842;SDS011;55559;48.898;9.184;2024-01-11T00:32:16;84.45;;;38.70;;
49842;SDS011;55559;48.898;9.184;2024-01-11T00:34:43;85.45;;;38.28;;
49842;SDS011;55559;48.898;9.184;2024-01-11T00:37:10;83.50;;;40.75;;
49842;SDS011;55559;48.898;9.184;2024-01-11T00:39:37;89.13;;;38.30;;
49842;SDS011;55559;48.898;9.184;2024-01-11T00:42:05;79.63;;;38.33;;
49842;SDS011;55559;48.898;9.184;2024-01-11T00:44:32;86.40;;;39.33;;
49842;SDS011;55559;48.898;9.184;2024-01-11T00:46:59;82.80;;;36.95;;
49842;SDS011;55559;48.898;9.184;2024-01-11T00:49:26;83.88;;;38.85;;
49842;SDS011;55559;48.898;9.184;2024-01-11T00:51:53;84.28;;;38.95;;
49842;SDS011;55559;48.898;9.184;2024-01-11T00:54:21;80.55;;;37.55;;
49842;SDS011;55559;48.898;9.184;2024-01-11T00:56:49;76.30;;;38.53;;
49842;SDS011;55559;48.898;9.184;2024-01-11T00:59:18;85.97;;;37.25;;
49842;SDS011;55559;48.898;9.184;2024-01-11T01:01:46;87.32;;;39.90;;
49842;SDS011;55559;48.898;9.184;2024-01-11T01:04:13;78.55;;;38.60;;
49842;SDS011;55559;48.898;9.184;2024-01-11T01:06:40;80.45;;;38.67;;
49842;SDS011;55559;48.898;9.184;2024-01-11T01:09:08;87.53;;;38.63;;
49842;SDS011;55559;48.898;9.184;2024-01-11T01:11:35;85.25;;;38.90;;
49842;SDS011;55559;48.898;9.184;2024-01-11T01:14:02;86.75;;;39.65;;
49842;SDS011;55559;48.898;9.184;2024-01-11T01:16:30;85.10;;;38.92;;
49842;SDS011;55559;48.898;9.184;2024-01-11T01:18:57;81.63;;;39.45;;
49842;SDS011;55559;48.898;9.184;2024-01-11T01:21:24;86.88;;;38.90;;
49842;SDS011;55559;48.898;9.184;2024-01-11T01:23:52;88.80;;;39.38;;
49842;SDS011;55559;48.898;9.184;2024-01-11T01:26:19;89.63;;;39.33;;
49842;SDS011;55559;48.898;9.184;2024-01-11T01:28:46;86.53;;;39.38;;
49842;SDS011;55559;48.898;9.184;2024-01-11T01:31:13;80.03;;;38.53;;
49842;SDS011;55559;48.898;9.184;2024-01-11T01:33:41;83.15;;;40.45;;
49842;SDS011;55559;48.898;9.184;2024-01-11T01:36:09;79.20;;;37.95;;
49842;SDS011;55559;48.898;9.184;2024-01-11T01:38:36;81.90;;;38.00;;
49842;SDS011;55559;48.898;9.184;2024-01-11T01:41:04;86.88;;;37.67;;
49842;SDS011;55559;48.898;9.184;2024-01-11T01:43:31;86.47;;;40.85;;
49842;SDS011;55559;48.898;9.184;2024-01-11T01:46:01;84.72;;;38.55;;
49842;SDS011;55559;48.898;9.184;2024-01-11T01:48:29;100.90;;;41.83;;
49842;SDS011;55559;48.898;9.184;2024-01-11T01:50:57;84.78;;;38.45;;
49842;SDS011;55559;48.898;9.184;2024-01-11T01:53:24;82.55;;;38.05;;
49842;SDS011;55559;48.898;9.184;2024-01-11T01:55:55;94.63;;;41.28;;
49842;SDS011;55559;48.898;9.184;2024-01-11T01:58:22;85.38;;;40.88;;
49842;SDS011;55559;48.898;9.184;2024-01-11T02:00:49;97.13;;;42.70;;
49842;SDS011;55559;48.898;9.184;2024-01-11T02:03:17;80.32;;;37.85;;
49842;SDS011;55559;48.898;9.184;2024-01-11T02:05:44;86.32;;;40.28;;
49842;SDS011;55559;48.898;9.184;2024-01-11T02:08:15;87.50;;;37.80;;
49842;SDS011;55559;48.898;9.184;2024-01-11T02:10:43;92.50;;;41.75;;
49842;SDS011;55559;48.898;9.184;2024-01-11T02:13:11;80.28;;;38.60;;
49842;SDS011;55559;48.898;9.184;2024-01-11T02:15:39;86.32;;;37.70;;
49842;SDS011;55559;48.898;9.184;2024-01-11T02:18:06;90.03;;;39.35;;
49842;SDS011;55559;48.898;9.184;2024-01-11T02:20:33;85.88;;;38.03;;
49842;SDS011;55559;48.898;9.184;2024-01-11T02:23:01;88.40;;;41.00;;
49842;SDS011;55559;48.898;9.184;2024-01-11T02:25:31;88.15;;;38.95;;
49842;SDS011;55559;48.898;9.184;2024-01-11T02:27:58;91.65;;;39.50;;
49842;SDS011;55559;48.898;9.184;2024-01-11T02:30:25;84.78;;;38.97;;
49842;SDS011;55559;48.898;9.184;2024-01-11T02:32:53;89.05;;;38.55;;
49842;SDS011;55559;48.898;9.184;2024-01-11T02:35:20;91.95;;;39.70;;
49842;SDS011;55559;48.898;9.184;2024-01-11T02:37:47;86.18;;;38.40;;
49842;SDS011;55559;48.898;9.184;2024-01-11T02:40:15;84.05;;;37.25;;
49842;SDS011;55559;48.898;9.184;2024-01-11T02:42:43;89.93;;;40.22;;
49842;SDS011;55559;48.898;9.184;2024-01-11T02:45:10;90.03;;;39.35;;
49842;SDS011;55559;48.898;9.184;2024-01-11T02:47:38;84.55;;;39.47;;
49842;SDS011;55559;48.898;9.184;2024-01-11T02:50:08;79.32;;;38.00;;
49842;SDS011;55559;48.898;9.184;2024-01-11T02:52:37;82.10;;;38.75;;
49842;SDS011;55559;48.898;9.184;2024-01-11T02:55:04;83.75;;;38.72;;
49842;SDS011;55559;48.898;9.184;2024-01-11T02:57:31;84.75;;;39.33;;
49842;SDS011;55559;48.898;9.184;2024-01-11T03:00:00;90.57;;;39.90;;
49842;SDS011;55559;48.898;9.184;2024-01-11T03:02:27;85.47;;;39.55;;
49842;SDS011;55559;48.898;9.184;2024-01-11T03:04:54;87.20;;;39.20;;
49842;SDS011;55559;48.898;9.184;2024-01-11T03:07:21;84.22;;;38.05;;
49842;SDS011;55559;48.898;9.184;2024-01-11T03:09:49;85.15;;;39.88;;
49842;SDS011;55559;48.898;9.184;2024-01-11T03:12:15;78.50;;;40.95;;
49842;SDS011;55559;48.898;9.184;2024-01-11T03:14:43;85.82;;;38.30;;
49842;SDS011;55559;48.898;9.184;2024-01-11T03:17:11;89.40;;;38.90;;
49842;SDS011;55559;48.898;9.184;2024-01-11T03:19:39;84.07;;;39.75;;
49842;SDS011;55559;48.898;9.184;2024-01-11T03:22:06;84.50;;;39.72;;
49842;SDS011;55559;48.898;9.184;2024-01-11T03:24:33;85.13;;;39.03;;
49842;SDS011;55559;48.898;9.184;2024-01-11T03:27:04;92.75;;;41.28;;
49842;SDS011;55559;48.898;9.184;2024-01-11T03:29:31;84.22;;;38.53;;
49842;SDS011;55559;48.898;9.184;2024-01-11T03:31:58;85.07;;;40.53;;
49842;SDS011;55559;48.898;9.184;2024-01-11T03:34:27;86.72;;;40.85;;
49842;SDS011;55559;48.898;9.184;2024-01-11T03:36:54;86.30;;;39.58;;
49842;SDS011;55559;48.898;9.184;2024-01-11T03:39:21;90.97;;;42.80;;
49842;SDS011;55559;48.898;9.184;2024-01-11T03:41:48;88.82;;;42.35;;
49842;SDS011;55559;48.898;9.184;2024-01-11T03:44:15;100.97;;;41.92;;
49842;SDS011;55559;48.898;9.184;2024-01-11T03:46:42;88.95;;;42.13;;
49842;SDS011;55559;48.898;9.184;2024-01-11T03:49:09;91.88;;;39.05;;
49842;SDS011;55559;48.898;9.184;2024-01-11T03:51:38;91.18;;;42.67;;
49842;SDS011;55559;48.898;9.184;2024-01-11T03:54:05;85.97;;;39.20;;
49842;SDS011;55559;48.898;9.184;2024-01-11T03:56:32;83.07;;;40.60;;
49842;SDS011;55559;48.898;9.184;2024-01-11T03:58:59;88.50;;;41.53;;
49842;SDS011;55559;48.898;9.184;2024-01-11T04:01:26;95.25;;;41.17;;
49842;SDS011;55559;48.898;9.184;2024-01-11T04:03:53;87.18;;;40.88;;
49842;SDS011;55559;48.898;9.184;2024-01-11T04:06:21;83.05;;;39.17;;
49842;SDS011;55559;48.898;9.184;2024-01-11T04:08:52;81.85;;;38.13;;
49842;SDS011;55559;48.898;9.184;2024-01-11T04:11:20;82.43;;;38.65;;
49842;SDS011;55559;48.898;9.184;2024-01-11T04:13:47;89.80;;;40.17;;
49842;SDS011;55559;48.898;9.184;2024-01-11T04:16:14;91.65;;;42.15;;
49842;SDS011;55559;48.898;9.184;2024-01-11T04:18:41;88.28;;;41.42;;
49842;SDS011;55559;48.898;9.184;2024-01-11T04:21:19;97.13;;;44.28;;
49842;SDS011;55559;48.898;9.184;2024-01-11T04:23:46;97.95;;;43.08;;
49842;SDS011;55559;48.898;9.184;2024-01-11T04:26:15;97.88;;;44.28;;
49842;SDS011;55559;48.898;9.184;2024-01-11T04:28:44;82.00;;;39.60;;
49842;SDS011;55559;48.898;9.184;2024-01-11T04:34:06;91.13;;;42.55;;
49842;SDS011;55559;48.898;9.184;2024-01-11T04:36:33;96.13;;;45.13;;
49842;SDS011;55559;48.898;9.184;2024-01-11T04:39:00;87.28;;;40.10;;
49842;SDS011;55559;48.898;9.184;2024-01-11T04:41:28;90.45;;;39.75;;
49842;SDS011;55559;48.898;9.184;2024-01-11T04:43:56;100.40;;;43.63;;
49842;SDS011;55559;48.898;9.184;2024-01-11T04:46:23;91.93;;;42.15;;
49842;SDS011;55559;48.898;9.184;2024-01-11T04:48:50;86.32;;;41.13;;
49842;SDS011;55559;48.898;9.184;2024-01-11T04:51:18;86.10;;;41.00;;
49842;SDS011;55559;48.898;9.184;2024-01-11T04:53:45;94.75;;;40.85;;
49842;SDS011;55559;48.898;9.184;2024-01-11T04:56:13;92.35;;;41.22;;
49842;SDS011;55559;48.898;9.184;2024-01-11T04:58:42;100.70;;;40.63;;
49842;SDS011;55559;48.898;9.184;2024-01-11T05:01:11;78.65;;;38.13;;
49842;SDS011;55559;48.898;9.184;2024-01-11T05:03:38;94.30;;;42.42;;
49842;SDS011;55559;48.898;9.184;2024-01-11T05:06:05;97.03;;;43.28;;
49842;SDS011;55559;48.898;9.184;2024-01-11T05:08:33;95.28;;;41.35;;
49842;SDS011;55559;48.898;9.184;2024-01-11T05:11:00;96.13;;;41.95;;
49842;SDS011;55559;48.898;9.184;2024-01-11T05:13:27;90.18;;;39.60;;
49842;SDS011;55559;48.898;9.184;2024-01-11T05:15:55;91.18;;;40.97;;
49842;SDS011;55559;48.898;9.184;2024-01-11T05:18:23;98.70;;;43.25;;
49842;SDS011;55559;48.898;9.184;2024-01-11T05:20:52;92.30;;;41.22;;
49842;SDS011;55559;48.898;9.184;2024-01-11T05:23:19;92.50;;;40.83;;
49842;SDS011;55559;48.898;9.184;2024-01-11T05:25:46;91.95;;;41.08;;
49842;SDS011;55559;48.898;9.184;2024-01-11T05:28:13;91.32;;;41.80;;
49842;SDS011;55559;48.898;9.184;2024-01-11T05:30:40;90.93;;;38.88;;
49842;SDS011;55559;48.898;9.184;2024-01-11T05:33:08;89.07;;;41.70;;
49842;SDS011;55559;48.898;9.184;2024-01-11T05:35:35;83.47;;;38.30;;
49842;SDS011;55559;48.898;9.184;2024-01-11T05:38:03;88.38;;;38.25;;
49842;SDS011;55559;48.898;9.184;2024-01-11T05:40:30;88.13;;;39.35;;
49842;SDS011;55559;48.898;9.184;2024-01-11T05:42:57;89.43;;;40.28;;
49842;SDS011;55559;48.898;9.184;2024-01-11T05:45:24;85.38;;;38.75;;
49842;SDS011;55559;48.898;9.184;2024-01-11T05:47:51;101.65;;;40.35;;
49842;SDS011;55559;48.898;9.184;2024-01-11T05:50:19;85.82;;;39.42;;
49842;SDS011;55559;48.898;9.184;2024-01-11T05:52:46;90.13;;;40.60;;
49842;SDS011;55559;48.898;9.184;2024-01-11T05:55:14;88.55;;;39.45;;
49842;SDS011;55559;48.898;9.184;2024-01-11T05:57:44;93.47;;;40.58;;
49842;SDS011;55559;48.898;9.184;2024-01-11T06:00:11;90.20;;;39.47;;
49842;SDS011;55559;48.898;9.184;2024-01-11T06:02:40;91.03;;;39.60;;
49842;SDS011;55559;48.898;9.184;2024-01-11T06:05:07;87.03;;;41.03;;
49842;SDS011;55559;48.898;9.184;2024-01-11T06:07:36;91.90;;;40.63;;
49842;SDS011;55559;48.898;9.184;2024-01-11T06:10:03;100.25;;;42.15;;
49842;SDS011;55559;48.898;9.184;2024-01-11T06:12:31;91.47;;;41.03;;
49842;SDS011;55559;48.898;9.184;2024-01-11T06:14:58;85.93;;;41.83;;
49842;SDS011;55559;48.898;9.184;2024-01-11T06:17:26;87.15;;;41.08;;
49842;SDS011;55559;48.898;9.184;2024-01-11T06:19:53;88.72;;;42.47;;
49842;SDS011;55559;48.898;9.184;2024-01-11T06:22:20;86.78;;;41.17;;
49842;SDS011;55559;48.898;9.184;2024-01-11T06:24:48;89.85;;;41.38;;
49842;SDS011;55559;48.898;9.184;2024-01-11T06:27:15;91.88;;;42.75;;
49842;SDS011;55559;48.898;9.184;2024-01-11T06:29:42;98.82;;;41.78;;
49842;SDS011;55559;48.898;9.184;2024-01-11T06:32:09;91.43;;;41.13;;
49842;SDS011;55559;48.898;9.184;2024-01-11T06:34:36;99.85;;;40.78;;
49842;SDS011;55559;48.898;9.184;2024-01-11T06:37:04;90.60;;;41.35;;
49842;SDS011;55559;48.898;9.184;2024-01-11T06:39:31;90.60;;;41.25;;
49842;SDS011;55559;48.898;9.184;2024-01-11T06:41:59;91.40;;;40.60;;
49842;SDS011;55559;48.898;9.184;2024-01-11T06:44:25;94.93;;;42.83;;
49842;SDS011;55559;48.898;9.184;2024-01-11T06:46:52;97.38;;;43.40;;
49842;SDS011;55559;48.898;9.184;2024-01-11T06:49:19;105.68;;;44.92;;
49842;SDS011;55559;48.898;9.184;2024-01-11T06:51:46;105.70;;;51.33;;
49842;SDS011;55559;48.898;9.184;2024-01-11T06:54:14;103.72;;;47.90;;
49842;SDS011;55559;48.898;9.184;2024-01-11T06:56:41;104.32;;;44.05;;
49842;SDS011;55559;48.898;9.184;2024-01-11T06:59:10;93.30;;;41.08;;
49842;SDS011;55559;48.898;9.184;2024-01-11T07:01:37;99.07;;;43.13;;
49842;SDS011;55559;48.898;9.184;2024-01-11T07:04:04;92.13;;;42.63;;
49842;SDS011;55559;48.898;9.184;2024-01-11T07:06:31;85.45;;;40.20;;
49842;SDS011;55559;48.898;9.184;2024-01-11T07:08:58;99.88;;;44.45;;
49842;SDS011;55559;48.898;9.184;2024-01-11T07:11:25;90.65;;;42.10;;
49842;SDS011;55559;48.898;9.184;2024-01-11T07:13:52;88.88;;;39.30;;
49842;SDS011;55559;48.898;9.184;2024-01-11T07:16:21;95.03;;;39.15;;
49842;SDS011;55559;48.898;9.184;2024-01-11T07:18:48;89.13;;;39.15;;
49842;SDS011;55559;48.898;9.184;2024-01-11T07:21:19;90.18;;;39.35;;
49842;SDS011;55559;48.898;9.184;2024-01-11T07:23:48;99.53;;;42.55;;
49842;SDS011;55559;48.898;9.184;2024-01-11T07:26:15;101.07;;;42.20;;
49842;SDS011;55559;48.898;9.184;2024-01-11T07:28:43;92.47;;;42.05;;
49842;SDS011;55559;48.898;9.184;2024-01-11T07:31:10;96.35;;;42.67;;
49842;SDS011;55559;48.898;9.184;2024-01-11T07:33:39;86.68;;;38.72;;
49842;SDS011;55559;48.898;9.184;2024-01-11T07:36:06;91.97;;;39.30;;
49842;SDS011;55559;48.898;9.184;2024-01-11T07:38:33;81.78;;;39.70;;
49842;SDS011;55559;48.898;9.184;2024-01-11T07:41:00;90.72;;;42.15;;
49842;SDS011;55559;48.898;9.184;2024-01-11T07:43:27;92.28;;;41.30;;
49842;SDS011;55559;48.898;9.184;2024-01-11T07:45:54;92.95;;;42.40;;
49842;SDS011;55559;48.898;9.184;2024-01-11T07:48:22;84.57;;;38.90;;
49842;SDS011;55559;48.898;9.184;2024-01-11T07:50:51;86.65;;;38.72;;
49842;SDS011;55559;48.898;9.184;2024-01-11T07:53:18;89.45;;;42.17;;
49842;SDS011;55559;48.898;9.184;2024-01-11T07:55:45;95.28;;;40.85;;
49842;SDS011;55559;48.898;9.184;2024-01-11T07:58:13;88.45;;;40.38;;
49842;SDS011;55559;48.898;9.184;2024-01-11T08:00:40;94.45;;;42.33;;
49842;SDS011;55559;48.898;9.184;2024-01-11T08:03:07;87.35;;;40.15;;
49842;SDS011;55559;48.898;9.184;2024-01-11T08:05:35;93.32;;;40.90;;
49842;SDS011;55559;48.898;9.184;2024-01-11T08:08:03;90.82;;;42.20;;
49842;SDS011;55559;48.898;9.184;2024-01-11T08:10:31;81.35;;;38.42;;
49842;SDS011;55559;48.898;9.184;2024-01-11T08:12:58;79.43;;;38.20;;
49842;SDS011;55559;48.898;9.184;2024-01-11T08:15:25;84.40;;;38.67;;
49842;SDS011;55559;48.898;9.184;2024-01-11T08:17:52;85.93;;;40.45;;
49842;SDS011;55559;48.898;9.184;2024-01-11T08:20:19;84.00;;;37.70;;
49842;SDS011;55559;48.898;9.184;2024-01-11T08:22:47;76.75;;;39.55;;
49842;SDS011;55559;48.898;9.184;2024-01-11T08:25:15;85.55;;;39.95;;
49842;SDS011;55559;48.898;9.184;2024-01-11T08:27:43;85.57;;;37.83;;
49842;SDS011;55559;48.898;9.184;2024-01-11T08:30:10;82.03;;;38.70;;
49842;SDS011;55559;48.898;9.184;2024-01-11T08:32:38;85.75;;;39.28;;
49842;SDS011;55559;48.898;9.184;2024-01-11T08:35:08;88.63;;;39.35;;
49842;SDS011;55559;48.898;9.184;2024-01-11T08:37:35;87.47;;;42.53;;
49842;SDS011;55559;48.898;9.184;2024-01-11T08:40:02;91.30;;;39.30;;
49842;SDS011;55559;48.898;9.184;2024-01-11T08:42:32;82.47;;;39.92;;
49842;SDS011;55559;48.898;9.184;2024-01-11T08:44:59;78.90;;;38.25;;
49842;SDS011;55559;48.898;9.184;2024-01-11T08:47:32;76.17;;;36.57;;
49842;SDS011;55559;48.898;9.184;2024-01-11T08:50:00;76.40;;;37.55;;
49842;SDS011;55559;48.898;9.184;2024-01-11T08:52:31;83.78;;;39.30;;
49842;SDS011;55559;48.898;9.184;2024-01-11T08:54:58;80.85;;;38.25;;
49842;SDS011;55559;48.898;9.184;2024-01-11T08:57:25;77.43;;;39.40;;
49842;SDS011;55559;48.898;9.184;2024-01-11T08:59:54;78.90;;;37.83;;
49842;SDS011;55559;48.898;9.184;2024-01-11T09:02:21;83.53;;;39.33;;
49842;SDS011;55559;48.898;9.184;2024-01-11T09:04:48;78.50;;;37.75;;
49842;SDS011;55559;48.898;9.184;2024-01-11T09:07:15;76.65;;;36.50;;
49842;SDS011;55559;48.898;9.184;2024-01-11T09:09:42;69.28;;;34.50;;
49842;SDS011;55559;48.898;9.184;2024-01-11T09:12:11;71.13;;;37.17;;
49842;SDS011;55559;48.898;9.184;2024-01-11T09:14:38;78.72;;;36.58;;
49842;SDS011;55559;48.898;9.184;2024-01-11T09:17:07;75.22;;;37.65;;
49842;SDS011;55559;48.898;9.184;2024-01-11T09:19:34;77.07;;;36.75;;
49842;SDS011;55559;48.898;9.184;2024-01-11T09:22:03;81.65;;;38.42;;
49842;SDS011;55559;48.898;9.184;2024-01-11T09:24:30;69.40;;;33.75;;
49842;SDS011;55559;48.898;9.184;2024-01-11T09:26:57;67.60;;;31.13;;
49842;SDS011;55559;48.898;9.184;2024-01-11T09:29:24;72.95;;;33.17;;
49842;SDS011;55559;48.898;9.184;2024-01-11T09:31:51;79.25;;;32.10;;
49842;SDS011;55559;48.898;9.184;2024-01-11T09:34:20;75.47;;;33.00;;
49842;SDS011;55559;48.898;9.184;2024-01-11T09:36:47;69.53;;;33.22;;
49842;SDS011;55559;48.898;9.184;2024-01-11T09:39:14;71.65;;;34.45;;
49842;SDS011;55559;48.898;9.184;2024-01-11T09:41:42;72.00;;;34.13;;
49842;SDS011;55559;48.898;9.184;2024-01-11T09:44:11;79.22;;;36.42;;
49842;SDS011;55559;48.898;9.184;2024-01-11T09:46:38;68.93;;;35.08;;
49842;SDS011;55559;48.898;9.184;2024-01-11T09:49:06;80.80;;;35.17;;
49842;SDS011;55559;48.898;9.184;2024-01-11T09:51:35;69.85;;;33.95;;
49842;SDS011;55559;48.898;9.184;2024-01-11T09:54:04;77.95;;;35.80;;
49842;SDS011;55559;48.898;9.184;2024-01-11T09:56:32;72.55;;;34.55;;
49842;SDS011;55559;48.898;9.184;2024-01-11T09:59:01;79.18;;;34.70;;
49842;SDS011;55559;48.898;9.184;2024-01-11T10:01:31;77.32;;;35.67;;
49842;SDS011;55559;48.898;9.184;2024-01-11T10:03:58;70.53;;;33.47;;
49842;SDS011;55559;48.898;9.184;2024-01-11T10:06:26;69.18;;;32.35;;
49842;SDS011;55559;48.898;9.184;2024-01-11T10:08:55;74.80;;;36.35;;
49842;SDS011;55559;48.898;9.184;2024-01-11T10:11:22;70.47;;;33.65;;
49842;SDS011;55559;48.898;9.184;2024-01-11T10:13:51;77.45;;;34.65;;
49842;SDS011;55559;48.898;9.184;2024-01-11T10:16:22;70.95;;;33.28;;
49842;SDS011;55559;48.898;9.184;2024-01-11T10:18:49;82.45;;;39.65;;
49842;SDS011;55559;48.898;9.184;2024-01-11T10:21:20;70.72;;;33.78;;
49842;SDS011;55559;48.898;9.184;2024-01-11T10:23:47;81.22;;;37.53;;
49842;SDS011;55559;48.898;9.184;2024-01-11T10:26:16;73.20;;;37.80;;
49842;SDS011;55559;48.898;9.184;2024-01-11T10:28:44;69.85;;;34.75;;
49842;SDS011;55559;48.898;9.184;2024-01-11T10:31:11;71.57;;;36.35;;
49842;SDS011;55559;48.898;9.184;2024-01-11T10:33:40;74.82;;;36.00;;
49842;SDS011;55559;48.898;9.184;2024-01-11T10:36:07;74.05;;;33.58;;
49842;SDS011;55559;48.898;9.184;2024-01-11T10:38:35;66.95;;;33.75;;
49842;SDS011;55559;48.898;9.184;2024-01-11T10:41:04;70.93;;;33.70;;
49842;SDS011;55559;48.898;9.184;2024-01-11T10:43:34;73.38;;;35.25;;
49842;SDS011;55559;48.898;9.184;2024-01-11T10:46:03;83.75;;;39.55;;
49842;SDS011;55559;48.898;9.184;2024-01-11T10:48:32;83.13;;;37.90;;
49842;SDS011;55559;48.898;9.184;2024-01-11T10:51:00;113.63;;;44.92;;
49842;SDS011;55559;48.898;9.184;2024-01-11T10:53:28;146.32;;;72.03;;
49842;SDS011;55559;48.898;9.184;2024-01-11T10:55:59;84.30;;;39.50;;
49842;SDS011;55559;48.898;9.184;2024-01-11T10:58:26;86.28;;;38.90;;
49842;SDS011;55559;48.898;9.184;2024-01-11T11:00:55;70.82;;;33.72;;
49842;SDS011;55559;48.898;9.184;2024-01-11T11:03:22;74.57;;;34.97;;
49842;SDS011;55559;48.898;9.184;2024-01-11T11:05:50;69.20;;;36.08;;
49842;SDS011;55559;48.898;9.184;2024-01-11T11:08:18;75.03;;;35.78;;
49842;SDS011;55559;48.898;9.184;2024-01-11T11:10:46;65.05;;;32.78;;
49842;SDS011;55559;48.898;9.184;2024-01-11T11:13:14;76.20;;;35.53;;
49842;SDS011;55559;48.898;9.184;2024-01-11T11:15:42;67.57;;;35.72;;
49842;SDS011;55559;48.898;9.184;2024-01-11T11:18:13;68.03;;;32.92;;
49842;SDS011;55559;48.898;9.184;2024-01-11T11:20:41;73.97;;;35.10;;
49842;SDS011;55559;48.898;9.184;2024-01-11T11:23:09;67.32;;;33.90;;
49842;SDS011;55559;48.898;9.184;2024-01-11T11:25:36;69.60;;;33.60;;
49842;SDS011;55559;48.898;9.184;2024-01-11T11:28:04;64.95;;;33.53;;
49842;SDS011;55559;48.898;9.184;2024-01-11T11:30:31;61.70;;;30.63;;
49842;SDS011;55559;48.898;9.184;2024-01-11T11:32:58;72.18;;;33.10;;
49842;SDS011;55559;48.898;9.184;2024-01-11T11:35:35;70.60;;;35.10;;
49842;SDS011;55559;48.898;9.184;2024-01-11T11:38:02;72.20;;;36.70;;
49842;SDS011;55559;48.898;9.184;2024-01-11T11:40:33;68.97;;;34.10;;
49842;SDS011;55559;48.898;9.184;2024-01-11T11:43:04;66.72;;;33.40;;
49842;SDS011;55559;48.898;9.184;2024-01-11T11:45:31;73.25;;;33.92;;
49842;SDS011;55559;48.898;9.184;2024-01-11T11:47:58;64.50;;;33.53;;
49842;SDS011;55559;48.898;9.184;2024-01-11T11:50:26;71.72;;;34.20;;
49842;SDS011;55559;48.898;9.184;2024-01-11T11:52:55;70.32;;;35.33;;
49842;SDS011;55559;48.898;9.184;2024-01-11T11:55:23;64.13;;;32.95;;
49842;SDS011;55559;48.898;9.184;2024-01-11T11:57:50;70.05;;;37.00;;
49842;SDS011;55559;48.898;9.184;2024-01-11T12:00:18;71.78;;;34.38;;
49842;SDS011;55559;48.898;9.184;2024-01-11T12:02:46;65.60;;;34.97;;
49842;SDS011;55559;48.898;9.184;2024-01-11T12:05:13;77.30;;;35.15;;
49842;SDS011;55559;48.898;9.184;2024-01-11T12:07:40;67.22;;;34.78;;
49842;SDS011;55559;48.898;9.184;2024-01-11T12:10:09;73.43;;;35.55;;
49842;SDS011;55559;48.898;9.184;2024-01-11T12:12:36;71.38;;;35.10;;
49842;SDS011;55559;48.898;9.184;2024-01-11T12:15:04;74.15;;;35.38;;
49842;SDS011;55559;48.898;9.184;2024-01-11T12:17:31;68.40;;;34.22;;
49842;SDS011;55559;48.898;9.184;2024-01-11T12:19:58;69.78;;;36.47;;
49842;SDS011;55559;48.898;9.184;2024-01-11T12:22:25;72.70;;;37.60;;
49842;SDS011;55559;48.898;9.184;2024-01-11T12:24:52;69.40;;;34.88;;
49842;SDS011;55559;48.898;9.184;2024-01-11T12:27:21;70.68;;;35.97;;
49842;SDS011;55559;48.898;9.184;2024-01-11T12:29:48;66.80;;;33.67;;
49842;SDS011;55559;48.898;9.184;2024-01-11T12:32:15;73.72;;;38.58;;
49842;SDS011;55559;48.898;9.184;2024-01-11T12:34:43;67.05;;;36.33;;
49842;SDS011;55559;48.898;9.184;2024-01-11T12:37:11;73.88;;;33.17;;
49842;SDS011;55559;48.898;9.184;2024-01-11T12:39:38;76.90;;;35.35;;
49842;SDS011;55559;48.898;9.184;2024-01-11T12:42:05;63.88;;;33.92;;
49842;SDS011;55559;48.898;9.184;2024-01-11T12:44:34;77.85;;;36.88;;
49842;SDS011;55559;48.898;9.184;2024-01-11T12:47:03;74.15;;;36.63;;
49842;SDS011;55559;48.898;9.184;2024-01-11T12:49:31;81.55;;;36.92;;
49842;SDS011;55559;48.898;9.184;2024-01-11T12:51:59;74.35;;;36.40;;
49842;SDS011;55559;48.898;9.184;2024-01-11T12:54:26;65.43;;;33.28;;
49842;SDS011;55559;48.898;9.184;2024-01-11T12:56:53;67.35;;;34.05;;
49842;SDS011;55559;48.898;9.184;2024-01-11T12:59:20;76.35;;;36.97;;
49842;SDS011;55559;48.898;9.184;2024-01-11T13:01:53;68.57;;;34.55;;
49842;SDS011;55559;48.898;9.184;2024-01-11T13:04:22;78.13;;;37.25;;
49842;SDS011;55559;48.898;9.184;2024-01-11T13:06:49;66.22;;;34.53;;
49842;SDS011;55559;48.898;9.184;2024-01-11T13:09:16;68.40;;;35.35;;
49842;SDS011;55559;48.898;9.184;2024-01-11T13:11:43;69.68;;;35.58;;
49842;SDS011;55559;48.898;9.184;2024-01-11T13:14:10;70.25;;;34.20;;
49842;SDS011;55559;48.898;9.184;2024-01-11T13:16:44;65.20;;;32.78;;
49842;SDS011;55559;48.898;9.184;2024-01-11T13:19:13;68.32;;;35.15;;
49842;SDS011;55559;48.898;9.184;2024-01-11T13:21:40;64.60;;;34.38;;
49842;SDS011;55559;48.898;9.184;2024-01-11T13:24:07;72.22;;;36.92;;
49842;SDS011;55559;48.898;9.184;2024-01-11T13:26:35;68.72;;;36.03;;
49842;SDS011;55559;48.898;9.184;2024-01-11T13:29:03;68.03;;;33.53;;
49842;SDS011;55559;48.898;9.184;2024-01-11T13:31:30;71.55;;;35.15;;
49842;SDS011;55559;48.898;9.184;2024-01-11T13:33:57;78.18;;;35.63;;
49842;SDS011;55559;48.898;9.184;2024-01-11T13:36:26;63.05;;;34.70;;
49842;SDS011;55559;48.898;9.184;2024-01-11T13:38:53;68.05;;;34.28;;
49842;SDS011;55559;48.898;9.184;2024-01-11T13:41:20;76.47;;;36.47;;
49842;SDS011;55559;48.898;9.184;2024-01-11T13:43:47;63.60;;;33.53;;
49842;SDS011;55559;48.898;9.184;2024-01-11T13:46:15;71.05;;;35.65;;
49842;SDS011;55559;48.898;9.184;2024-01-11T13:48:45;67.82;;;36.13;;
49842;SDS011;55559;48.898;9.184;2024-01-11T13:51:12;71.43;;;34.58;;
49842;SDS011;55559;48.898;9.184;2024-01-11T13:53:42;61.58;;;33.83;;
49842;SDS011;55559;48.898;9.184;2024-01-11T13:56:09;68.47;;;36.42;;
49842;SDS011;55559;48.898;9.184;2024-01-11T13:58:36;62.13;;;30.80;;
49842;SDS011;55559;48.898;9.184;2024-01-11T14:01:04;72.32;;;35.45;;
49842;SDS011;55559;48.898;9.184;2024-01-11T14:03:33;70.35;;;33.42;;
49842;SDS011;55559;48.898;9.184;2024-01-11T14:06:00;75.32;;;33.83;;
49842;SDS011;55559;48.898;9.184;2024-01-11T14:08:28;66.68;;;35.17;;
49842;SDS011;55559;48.898;9.184;2024-01-11T14:10:56;73.88;;;32.65;;
49842;SDS011;55559;48.898;9.184;2024-01-11T14:13:23;68.10;;;33.92;;
49842;SDS011;55559;48.898;9.184;2024-01-11T14:15:50;67.97;;;32.95;;
49842;SDS011;55559;48.898;9.184;2024-01-11T14:18:20;68.20;;;33.53;;
49842;SDS011;55559;48.898;9.184;2024-01-11T14:20:47;70.97;;;35.30;;
49842;SDS011;55559;48.898;9.184;2024-01-11T14:23:14;76.35;;;38.70;;
49842;SDS011;55559;48.898;9.184;2024-01-11T14:25:41;64.05;;;32.17;;